Pittsburgh International Airport Pittsburgh US
ICAO: KPIT
IATA: PIT
Category: Large
Scheduled Services: Yes

Elevation: 1203 ft
TransAlt. 18000 ft.

Airport Communications:
APP:36.08
APP:120.875
ATIS:127.25
CLNC DEL:126.75
DEP:118.65
GND:121.9
ANG OPS:31.1
PITT COMD POST:25.21
ALTOONA RDO:112
RAMP CON:131.375
TWR:119.1
UNICOM:122.95

KPIT Zoom In..

If you have problems with the map follow the link
https://www.worldairports.se/pages/airport.php?
ICAO=KPIT

Runways:

(A) RW 10C length 10775 ft width 150 ft
---- / hdg 100

(B) RW 10L length 10502 ft width 150 ft
ILS 111.70 / hdg 100

(C) RW 10R length 11500 ft width 200 ft
ILS 108.90 / hdg 100

(D) RW 14 length 8101 ft width 150 ft
---- / hdg 144

(E) RW 28C length 10775 ft width 150 ft
---- / hdg 280

(F) RW 28L length 11500 ft width 200 ft
ILS 108.90 / hdg 280

(G) RW 28R length 10502 ft width 150 ft
ILS 111.70 / hdg 280

(H) RW 32 length 8101 ft width 150 ft
ILS 111.30 / hdg 324

Location; KPIT
Day. 12 / Time. 07.51 Zulu
* Altimeter: 30.58
* Temperature: -08° c. -17.6°f.
* Wind from: 000° Speed 00 kn.
Dewpoint: -11° c.
Visibility: 10 Statute Miles.
Clouds: Clear (automated report).

KPIT 120751Z 00000KT 10SM CLR M08/M11 A3058 RMK AO2 SLP381 T10781111


Wind - Calm.

 
 
jpsmedia worldairports.se 2019   terms of use